createdAt,value
2019-03-27T00:00:56.421Z,25.75
2019-03-27T00:03:24.875Z,25.32
2019-03-27T00:05:53.319Z,27.40
2019-03-27T00:08:21.759Z,20.55
2019-03-27T00:10:50.227Z,31.82
2019-03-27T00:13:18.678Z,20.90
2019-03-27T00:15:47.115Z,19.35
2019-03-27T00:18:15.576Z,20.88
2019-03-27T00:20:44.016Z,19.02
2019-03-27T00:23:12.463Z,27.70
2019-03-27T00:25:40.907Z,18.10
2019-03-27T00:28:09.616Z,25.57
2019-03-27T00:30:38.102Z,14.70
2019-03-27T00:33:06.638Z,21.97
2019-03-27T00:35:35.085Z,19.17
2019-03-27T00:38:04.508Z,23.20
2019-03-27T00:40:32.969Z,28.23
2019-03-27T00:43:01.423Z,22.73
2019-03-27T00:45:29.899Z,22.93
2019-03-27T00:47:58.375Z,27.25
2019-03-27T00:50:26.819Z,19.87
2019-03-27T00:52:55.284Z,17.85
2019-03-27T00:55:24.686Z,25.82
2019-03-27T00:57:53.148Z,18.23
2019-03-27T01:00:24.842Z,21.00
2019-03-27T01:02:53.282Z,23.12
2019-03-27T01:05:21.894Z,20.43
2019-03-27T01:07:50.337Z,26.50
2019-03-27T01:10:18.806Z,28.52
2019-03-27T01:12:47.251Z,30.45
2019-03-27T01:15:15.974Z,26.02
2019-03-27T01:17:44.419Z,25.08
2019-03-27T01:20:12.940Z,27.62
2019-03-27T01:22:41.390Z,36.05
2019-03-27T01:25:11.539Z,25.30
2019-03-27T01:27:40.036Z,25.80
2019-03-27T01:30:09.320Z,22.95
2019-03-27T01:32:37.772Z,19.37
2019-03-27T01:35:06.463Z,22.62
2019-03-27T01:37:34.912Z,22.15
2019-03-27T01:40:03.427Z,23.85
2019-03-27T01:42:31.883Z,29.72
2019-03-27T01:45:00.364Z,25.30
2019-03-27T01:47:28.798Z,27.45
2019-03-27T01:49:57.236Z,32.38
2019-03-27T01:52:25.701Z,25.52
2019-03-27T01:54:54.144Z,23.10
2019-03-27T01:57:22.615Z,25.60
2019-03-27T01:59:51.075Z,28.62
2019-03-27T02:02:19.508Z,26.62
2019-03-27T02:04:47.955Z,18.55
2019-03-27T02:07:16.423Z,25.50
2019-03-27T02:09:44.860Z,31.30
2019-03-27T02:12:13.319Z,21.68
2019-03-27T02:14:41.766Z,25.02
2019-03-27T02:17:10.275Z,31.40
2019-03-27T02:19:38.769Z,32.98
2019-03-27T02:22:10.321Z,29.02
2019-03-27T02:24:38.784Z,30.25
2019-03-27T02:27:07.227Z,23.38
2019-03-27T02:29:35.686Z,26.35
2019-03-27T02:32:04.216Z,27.30
2019-03-27T02:34:32.755Z,28.77
2019-03-27T02:37:01.224Z,23.12
2019-03-27T02:39:29.666Z,33.00
2019-03-27T02:41:58.110Z,23.30
2019-03-27T02:44:26.574Z,33.05
2019-03-27T02:46:55.102Z,22.57
2019-03-27T02:49:23.544Z,27.50
2019-03-27T02:51:52.007Z,36.53
2019-03-27T02:54:20.520Z,32.53
2019-03-27T02:56:48.974Z,20.07
2019-03-27T02:59:17.483Z,28.62
2019-03-27T03:01:48.016Z,24.63
2019-03-27T03:04:16.110Z,35.70
2019-03-27T03:06:44.595Z,28.75
2019-03-27T03:09:13.110Z,24.37
2019-03-27T03:11:41.584Z,30.12
2019-03-27T03:14:10.026Z,25.92
2019-03-27T03:16:42.806Z,23.15
2019-03-27T03:19:08.708Z,26.77
2019-03-27T03:21:37.187Z,28.92
2019-03-27T03:24:05.662Z,18.10
2019-03-27T03:26:34.177Z,22.13
2019-03-27T03:29:02.646Z,28.30
2019-03-27T03:31:31.100Z,29.67
2019-03-27T03:33:59.581Z,25.43
2019-03-27T03:36:28.051Z,26.05
2019-03-27T03:38:56.494Z,25.25
2019-03-27T03:41:25.011Z,29.32
2019-03-27T03:43:53.460Z,18.98
2019-03-27T03:46:21.988Z,26.95
2019-03-27T03:48:50.500Z,23.87
2019-03-27T03:51:19.194Z,22.37
2019-03-27T03:53:47.876Z,34.20
2019-03-27T03:56:17.032Z,27.93
2019-03-27T03:59:06.332Z,27.13
2019-03-27T04:01:37.043Z,32.17
2019-03-27T04:04:26.364Z,30.85
2019-03-27T04:06:54.861Z,21.87
2019-03-27T04:09:23.396Z,29.63
2019-03-27T04:11:51.892Z,33.00
2019-03-27T04:14:20.371Z,35.98
2019-03-27T04:16:48.939Z,30.93
2019-03-27T04:19:17.371Z,34.85
2019-03-27T04:21:45.815Z,25.70
2019-03-27T04:24:14.282Z,31.10
2019-03-27T04:26:42.809Z,34.95
2019-03-27T04:29:11.301Z,30.62
2019-03-27T04:31:39.746Z,28.73
2019-03-27T04:34:08.188Z,26.27
2019-03-27T04:36:36.645Z,35.38
2019-03-27T04:39:06.231Z,28.45
2019-03-27T04:41:34.731Z,31.45
2019-03-27T04:44:03.390Z,26.15
2019-03-27T04:46:31.872Z,32.70
2019-03-27T04:49:00.357Z,32.30
2019-03-27T04:51:28.851Z,32.70
2019-03-27T04:53:57.315Z,37.10
2019-03-27T04:56:25.778Z,28.12
2019-03-27T04:58:54.244Z,24.90
2019-03-27T05:01:22.689Z,36.20
2019-03-27T05:03:51.224Z,31.77
2019-03-27T05:06:19.690Z,29.55
2019-03-27T05:08:48.142Z,28.12
2019-03-27T05:11:16.607Z,31.85
2019-03-27T05:13:45.064Z,29.65
2019-03-27T05:16:13.504Z,27.07
2019-03-27T05:18:41.957Z,33.10
2019-03-27T05:21:10.411Z,36.77
2019-03-27T05:23:38.927Z,47.05
2019-03-27T05:26:07.396Z,38.55
2019-03-27T05:28:35.903Z,29.92
2019-03-27T05:31:04.362Z,34.45
2019-03-27T05:33:32.940Z,28.73
2019-03-27T05:36:01.462Z,28.87
2019-03-27T05:38:29.911Z,29.18
2019-03-27T05:40:58.420Z,34.10
2019-03-27T05:43:26.888Z,35.65
2019-03-27T05:45:55.422Z,26.60
2019-03-27T05:48:23.956Z,28.85
2019-03-27T05:50:52.979Z,42.10
2019-03-27T05:53:21.442Z,30.62
2019-03-27T05:55:49.907Z,39.85
2019-03-27T05:58:18.372Z,29.98
2019-03-27T06:00:46.825Z,26.80
2019-03-27T06:03:15.311Z,29.12
2019-03-27T06:05:43.849Z,24.90
2019-03-27T06:08:12.317Z,29.48
2019-03-27T06:10:40.856Z,26.15
2019-03-27T06:13:09.305Z,25.25
2019-03-27T06:15:37.763Z,38.53
2019-03-27T06:18:12.925Z,30.70
2019-03-27T06:20:36.472Z,26.15
2019-03-27T06:23:04.916Z,44.53
2019-03-27T06:25:33.377Z,28.65
2019-03-27T06:28:01.897Z,31.87
2019-03-27T06:30:30.603Z,32.60
2019-03-27T06:32:59.067Z,34.92
2019-03-27T06:35:27.539Z,31.82
2019-03-27T06:37:55.993Z,42.98
2019-03-27T06:40:24.511Z,48.80
2019-03-27T06:42:52.993Z,35.92
2019-03-27T06:45:21.419Z,33.75
2019-03-27T06:47:49.894Z,34.80
2019-03-27T06:50:18.350Z,30.92
2019-03-27T06:52:46.866Z,36.85
2019-03-27T06:55:15.354Z,37.05
2019-03-27T06:57:43.804Z,39.08
2019-03-27T07:00:12.613Z,34.50
2019-03-27T07:02:41.091Z,32.93
2019-03-27T07:05:09.536Z,35.88
2019-03-27T07:07:37.992Z,36.65
2019-03-27T07:10:08.139Z,34.10
2019-03-27T07:12:36.585Z,37.90
2019-03-27T07:15:06.392Z,26.50
2019-03-27T07:17:35.120Z,29.75
2019-03-27T07:20:06.224Z,31.93
2019-03-27T07:22:34.663Z,35.65
2019-03-27T07:25:04.496Z,36.13
2019-03-27T07:27:32.947Z,31.48
2019-03-27T07:30:01.421Z,35.15
2019-03-27T07:32:29.947Z,30.20
2019-03-27T07:34:58.406Z,35.23
2019-03-27T07:37:26.885Z,30.02
2019-03-27T07:39:55.335Z,25.57
2019-03-27T07:42:23.832Z,31.23
2019-03-27T07:44:52.310Z,35.20
2019-03-27T07:47:21.148Z,33.90
2019-03-27T07:49:49.610Z,17.50
2019-03-27T07:52:18.096Z,31.75
2019-03-27T07:54:46.595Z,29.80
2019-03-27T07:57:15.114Z,22.80
2019-03-27T07:59:43.592Z,19.98
2019-03-27T08:02:12.032Z,16.17
2019-03-27T08:04:40.499Z,27.60
2019-03-27T08:07:08.976Z,18.75
2019-03-27T08:09:37.419Z,21.48
2019-03-27T08:12:05.953Z,30.92
2019-03-27T08:14:34.402Z,20.40
2019-03-27T08:17:02.862Z,19.65
2019-03-27T08:19:31.311Z,18.90
2019-03-27T08:21:59.784Z,15.03
2019-03-27T08:24:28.555Z,23.05
2019-03-27T08:26:57.169Z,16.77
2019-03-27T08:29:25.615Z,21.07
2019-03-27T08:31:54.140Z,21.83
2019-03-27T08:34:22.596Z,19.73
2019-03-27T08:36:51.053Z,15.07
2019-03-27T08:39:19.499Z,15.88
2019-03-27T08:41:47.963Z,15.60
2019-03-27T08:44:16.428Z,15.90
2019-03-27T08:46:44.894Z,15.75
2019-03-27T08:49:21.761Z,19.75
2019-03-27T08:51:43.531Z,14.65
2019-03-27T08:54:12.037Z,16.90
2019-03-27T08:56:40.977Z,16.10
2019-03-27T08:59:09.439Z,22.37
2019-03-27T09:01:37.898Z,14.33
2019-03-27T09:04:06.345Z,14.75
2019-03-27T09:06:34.819Z,14.60
2019-03-27T09:09:04.834Z,15.20
2019-03-27T09:11:33.300Z,15.05
2019-03-27T09:14:01.755Z,10.88
2019-03-27T09:16:30.278Z,12.58
2019-03-27T09:18:58.760Z,21.25
2019-03-27T09:21:27.211Z,17.00
2019-03-27T09:23:55.696Z,20.75
2019-03-27T09:26:24.224Z,15.78
2019-03-27T09:28:52.667Z,10.95
2019-03-27T09:31:21.144Z,14.07
2019-03-27T09:33:49.623Z,13.72
2019-03-27T09:36:18.094Z,12.55
2019-03-27T09:38:46.566Z,17.05
2019-03-27T09:41:15.020Z,13.55
2019-03-27T09:43:43.463Z,9.48
2019-03-27T09:46:11.925Z,9.58
2019-03-27T09:48:59.711Z,10.50
2019-03-27T09:51:28.163Z,10.80
2019-03-27T09:53:56.615Z,12.47
2019-03-27T09:56:25.064Z,7.95
2019-03-27T09:58:53.540Z,15.50
2019-03-27T10:01:21.974Z,9.55
2019-03-27T10:03:50.423Z,9.45
2019-03-27T10:06:18.875Z,12.35
2019-03-27T10:08:47.319Z,19.45
2019-03-27T10:11:15.771Z,16.27
2019-03-27T10:13:44.240Z,18.10
2019-03-27T10:16:12.756Z,8.95
2019-03-27T10:18:41.239Z,12.15
2019-03-27T10:21:09.690Z,6.70
2019-03-27T10:23:38.179Z,12.43
2019-03-27T10:26:06.775Z,9.10
2019-03-27T10:28:35.234Z,9.23
2019-03-27T10:31:03.691Z,15.50
2019-03-27T10:33:32.167Z,11.73
2019-03-27T10:36:00.611Z,11.83
2019-03-27T10:38:29.075Z,12.20
2019-03-27T10:40:57.711Z,9.55
2019-03-27T10:43:26.151Z,8.28
2019-03-27T10:45:54.611Z,11.43
2019-03-27T10:48:23.059Z,7.65
2019-03-27T10:50:51.523Z,9.00
2019-03-27T10:53:20.043Z,10.08
2019-03-27T10:55:48.488Z,10.68
2019-03-27T10:58:16.966Z,7.72
2019-03-27T11:00:45.464Z,12.53
2019-03-27T11:03:13.943Z,8.43
2019-03-27T11:05:42.384Z,14.47
2019-03-27T11:08:30.183Z,7.72
2019-03-27T11:10:58.657Z,10.00
2019-03-27T11:13:27.109Z,9.80
2019-03-27T11:15:55.559Z,5.87
2019-03-27T11:18:24.843Z,8.93
2019-03-27T11:20:53.300Z,15.10
2019-03-27T11:23:21.756Z,11.20
2019-03-27T11:25:50.236Z,4.78
2019-03-27T11:28:18.692Z,6.62
2019-03-27T11:30:48.506Z,9.60
2019-03-27T11:33:17.332Z,6.80
2019-03-27T11:35:45.783Z,8.98
2019-03-27T11:38:14.231Z,10.65
2019-03-27T11:40:42.700Z,7.40
2019-03-27T11:43:11.508Z,4.78
2019-03-27T11:45:39.963Z,12.00
2019-03-27T11:48:08.551Z,13.35
2019-03-27T11:50:44.940Z,12.00
2019-03-27T11:53:07.190Z,7.87
2019-03-27T11:55:35.763Z,12.70
2019-03-27T11:58:04.396Z,8.20
2019-03-27T12:00:32.943Z,10.32
2019-03-27T12:03:01.395Z,8.90
2019-03-27T12:05:29.848Z,12.15
2019-03-27T12:07:58.318Z,6.40
2019-03-27T12:10:26.847Z,10.58
2019-03-27T12:12:55.300Z,14.23
2019-03-27T12:15:38.184Z,9.30
2019-03-27T12:18:08.149Z,12.78
2019-03-27T12:20:36.703Z,9.18
2019-03-27T12:23:05.260Z,11.48
2019-03-27T12:25:33.763Z,12.30
2019-03-27T12:28:02.966Z,9.58
2019-03-27T12:30:31.420Z,8.78
2019-03-27T12:32:59.911Z,10.82
2019-03-27T12:35:28.352Z,9.75
2019-03-27T12:37:56.796Z,8.03
2019-03-27T12:40:25.242Z,5.58
2019-03-27T12:42:53.710Z,5.17
2019-03-27T12:45:22.240Z,5.10
2019-03-27T12:47:50.709Z,4.67
2019-03-27T12:50:19.147Z,4.35
2019-03-27T12:52:47.604Z,5.35
2019-03-27T12:55:17.285Z,6.65
2019-03-27T12:57:45.786Z,7.15
2019-03-27T13:00:15.676Z,5.92
2019-03-27T13:02:44.131Z,7.25
2019-03-27T13:05:12.679Z,7.70
2019-03-27T13:07:49.984Z,9.85
2019-03-27T13:10:11.493Z,11.45
2019-03-27T13:12:40.080Z,7.90
2019-03-27T13:15:08.694Z,8.25
2019-03-27T13:17:37.208Z,10.85
2019-03-27T13:20:07.714Z,8.18
2019-03-27T13:22:38.298Z,5.62
2019-03-27T13:25:07.048Z,7.53
2019-03-27T13:27:35.565Z,5.50
2019-03-27T13:30:06.953Z,7.55
2019-03-27T13:32:35.407Z,5.97
2019-03-27T13:35:05.897Z,7.60
2019-03-27T13:40:02.054Z,4.78
2019-03-27T13:42:30.588Z,4.47
2019-03-27T13:44:59.055Z,3.55
2019-03-27T13:47:27.515Z,4.65
2019-03-27T13:49:55.955Z,2.75
2019-03-27T13:52:24.443Z,3.52
2019-03-27T13:54:52.887Z,4.92
2019-03-27T13:57:21.560Z,3.52
2019-03-27T13:59:50.014Z,2.98
2019-03-27T14:02:18.539Z,2.87
2019-03-27T14:04:46.983Z,2.55
2019-03-27T14:07:15.440Z,2.92
2019-03-27T14:09:43.883Z,3.90
2019-03-27T14:12:12.327Z,2.95
2019-03-27T14:14:50.336Z,2.30
2019-03-27T14:19:38.629Z,2.10
2019-03-27T14:22:07.085Z,2.98
2019-03-27T14:24:35.543Z,2.45
2019-03-27T14:27:04.007Z,3.75
2019-03-27T14:29:32.451Z,2.67
2019-03-27T14:32:00.908Z,3.52
2019-03-27T14:34:29.355Z,2.85
2019-03-27T14:36:58.123Z,3.63
2019-03-27T14:39:26.567Z,2.33
2019-03-27T14:41:55.090Z,3.37
2019-03-27T14:44:23.541Z,2.80
2019-03-27T14:46:51.984Z,2.97
2019-03-27T14:49:20.704Z,1.75
2019-03-27T14:51:49.152Z,4.23
2019-03-27T14:54:17.596Z,1.98
2019-03-27T14:56:46.062Z,2.02
2019-03-27T14:59:14.516Z,3.30
2019-03-27T15:01:42.967Z,3.05
2019-03-27T15:04:11.431Z,3.52
2019-03-27T15:06:39.879Z,6.67
2019-03-27T15:09:09.259Z,4.45
2019-03-27T15:11:37.749Z,2.98
2019-03-27T15:14:06.206Z,4.35
2019-03-27T15:16:34.917Z,2.87
2019-03-27T15:19:03.367Z,2.75
2019-03-27T15:21:31.811Z,2.50
2019-03-27T15:24:00.269Z,2.50
2019-03-27T15:26:28.712Z,3.45
2019-03-27T15:28:57.165Z,3.92
2019-03-27T15:31:25.611Z,3.20
2019-03-27T15:33:54.064Z,3.70
2019-03-27T15:36:22.507Z,4.28
2019-03-27T15:38:50.975Z,3.37
2019-03-27T15:41:19.422Z,7.22
2019-03-27T15:43:47.875Z,4.20
2019-03-27T15:46:16.319Z,4.42
2019-03-27T15:48:44.766Z,6.60
2019-03-27T15:51:13.227Z,7.87
2019-03-27T15:53:41.700Z,5.78
2019-03-27T15:56:10.219Z,4.33
2019-03-27T15:58:38.735Z,5.10
2019-03-27T16:01:07.889Z,7.78
2019-03-27T16:03:36.384Z,4.95
2019-03-27T16:06:04.987Z,5.40
2019-03-27T16:08:33.457Z,11.38
2019-03-27T16:11:02.104Z,12.68
2019-03-27T16:13:30.542Z,14.85
2019-03-27T16:15:58.997Z,12.95
2019-03-27T16:18:27.524Z,10.88
2019-03-27T16:20:55.977Z,12.80
2019-03-27T16:23:24.431Z,12.15
2019-03-27T16:25:52.870Z,14.60
2019-03-27T16:28:21.323Z,12.63
2019-03-27T16:30:49.797Z,15.05
2019-03-27T16:33:18.271Z,12.63
2019-03-27T16:35:46.711Z,11.60
2019-03-27T16:38:15.168Z,9.00
2019-03-27T16:40:47.287Z,14.55
2019-03-27T16:43:16.020Z,11.38
2019-03-27T16:45:44.461Z,11.50
2019-03-27T16:48:13.001Z,12.03
2019-03-27T16:50:41.528Z,12.23
2019-03-27T16:53:09.978Z,14.50
2019-03-27T16:55:38.458Z,10.18
2019-03-27T16:58:06.919Z,12.90
2019-03-27T17:00:35.380Z,19.00
2019-03-27T17:03:04.039Z,19.92
2019-03-27T17:05:32.509Z,15.18
2019-03-27T17:08:01.214Z,12.47
2019-03-27T17:10:29.951Z,13.00
2019-03-27T17:12:58.403Z,13.80
2019-03-27T17:15:26.860Z,11.33
2019-03-27T17:17:55.679Z,8.53
2019-03-27T17:20:24.170Z,9.25
2019-03-27T17:22:52.685Z,8.25
2019-03-27T17:25:21.131Z,9.18
2019-03-27T17:27:49.654Z,13.35
2019-03-27T17:30:18.988Z,9.98
2019-03-27T17:32:47.502Z,10.23
2019-03-27T17:35:15.940Z,6.22
2019-03-27T17:37:44.404Z,8.28
2019-03-27T17:40:13.135Z,8.63
2019-03-27T17:42:41.627Z,7.45
2019-03-27T17:45:10.149Z,8.03
2019-03-27T17:47:38.592Z,7.87
2019-03-27T17:50:07.680Z,10.53
2019-03-27T17:52:38.129Z,8.15
2019-03-27T17:55:08.193Z,6.03
2019-03-27T17:57:36.646Z,8.68
2019-03-27T18:00:14.811Z,11.15
2019-03-27T18:02:43.269Z,11.75
2019-03-27T18:05:11.790Z,8.90
2019-03-27T18:07:40.255Z,12.68
2019-03-27T18:10:09.063Z,10.82
2019-03-27T18:12:37.517Z,13.18
2019-03-27T18:15:07.108Z,9.80
2019-03-27T18:17:35.565Z,11.67
2019-03-27T18:20:05.304Z,13.43
2019-03-27T18:22:33.755Z,15.10
2019-03-27T18:25:02.299Z,12.73
2019-03-27T18:27:30.772Z,9.28
2019-03-27T18:29:59.283Z,8.00
2019-03-27T18:32:27.791Z,11.00
2019-03-27T18:34:56.239Z,6.58
2019-03-27T18:37:24.703Z,13.72
2019-03-27T18:39:53.152Z,10.43
2019-03-27T18:42:21.591Z,13.28
2019-03-27T18:44:50.134Z,11.78
2019-03-27T18:47:18.588Z,19.92
2019-03-27T18:49:47.041Z,20.23
2019-03-27T18:52:15.483Z,14.80
2019-03-27T18:54:43.935Z,14.20
2019-03-27T18:57:12.395Z,21.70
2019-03-27T18:59:40.855Z,17.95
2019-03-27T19:02:09.304Z,25.57
2019-03-27T19:04:37.824Z,22.42
2019-03-27T19:07:06.280Z,21.42
2019-03-27T19:09:34.768Z,18.02
2019-03-27T19:12:03.346Z,19.35
2019-03-27T19:14:31.821Z,12.93
2019-03-27T19:17:00.274Z,19.63
2019-03-27T19:19:28.731Z,16.57
2019-03-27T19:21:57.242Z,16.47
2019-03-27T19:24:25.765Z,15.98
2019-03-27T19:26:54.267Z,19.23
2019-03-27T19:29:22.804Z,16.45
2019-03-27T19:31:51.327Z,19.83
2019-03-27T19:34:19.783Z,21.75
2019-03-27T19:36:48.309Z,17.70
2019-03-27T19:39:16.763Z,17.62
2019-03-27T19:41:45.246Z,17.98
2019-03-27T19:44:13.771Z,15.45
2019-03-27T19:46:42.974Z,23.67
2019-03-27T19:49:11.472Z,20.45
2019-03-27T19:51:39.979Z,18.65
2019-03-27T19:54:08.442Z,19.95
2019-03-27T19:56:36.896Z,27.48
2019-03-27T19:59:05.372Z,29.60
2019-03-27T20:01:33.815Z,18.30
2019-03-27T20:04:02.278Z,22.48
2019-03-27T20:06:30.777Z,26.40
2019-03-27T20:08:59.224Z,26.40
2019-03-27T20:11:27.775Z,20.48
2019-03-27T20:13:56.337Z,19.90
2019-03-27T20:16:24.810Z,25.37
2019-03-27T20:18:53.289Z,18.05
2019-03-27T20:21:21.731Z,17.70
2019-03-27T20:23:50.473Z,24.75
2019-03-27T20:26:18.929Z,26.55
2019-03-27T20:28:47.460Z,20.77
2019-03-27T20:31:15.948Z,21.30
2019-03-27T20:33:44.407Z,35.40
2019-03-27T20:36:13.227Z,24.87
2019-03-27T20:38:41.799Z,26.65
2019-03-27T20:41:10.261Z,25.90
2019-03-27T20:43:38.712Z,27.48
2019-03-27T20:46:07.175Z,28.00
2019-03-27T20:48:35.726Z,27.37
2019-03-27T20:51:04.183Z,27.05
2019-03-27T20:53:32.675Z,26.75
2019-03-27T20:56:01.168Z,34.15
2019-03-27T20:58:29.636Z,26.85
2019-03-27T21:00:58.190Z,35.78
2019-03-27T21:03:26.628Z,29.12
2019-03-27T21:05:55.082Z,30.50
2019-03-27T21:08:23.575Z,30.25
2019-03-27T21:10:52.058Z,34.43
2019-03-27T21:13:20.578Z,27.52
2019-03-27T21:15:49.032Z,34.23
2019-03-27T21:18:17.491Z,27.20
2019-03-27T21:20:45.943Z,27.60
2019-03-27T21:23:14.411Z,32.50
2019-03-27T21:25:42.866Z,31.35
2019-03-27T21:28:11.393Z,31.05
2019-03-27T21:30:39.836Z,33.23
2019-03-27T21:33:08.303Z,34.38
2019-03-27T21:35:36.755Z,26.05
2019-03-27T21:38:05.269Z,30.17
2019-03-27T21:40:33.829Z,33.53
2019-03-27T21:43:02.311Z,27.75
2019-03-27T21:45:32.242Z,35.10
2019-03-27T21:50:28.744Z,26.95
2019-03-27T21:53:00.904Z,34.00
2019-03-27T21:55:27.377Z,27.58
2019-03-27T21:57:55.834Z,30.23
2019-03-27T22:00:40.447Z,25.10
2019-03-27T22:03:09.035Z,27.73
2019-03-27T22:05:37.549Z,38.10
2019-03-27T22:08:06.110Z,30.45
2019-03-27T22:10:34.659Z,31.25
2019-03-27T22:13:03.211Z,36.70
2019-03-27T22:15:31.659Z,44.60
2019-03-27T22:18:00.134Z,33.33
2019-03-27T22:20:28.647Z,32.17
2019-03-27T22:22:57.156Z,34.43
2019-03-27T22:25:35.490Z,33.63
2019-03-27T22:27:55.851Z,24.65
2019-03-27T22:30:24.357Z,41.30
2019-03-27T22:32:52.812Z,34.73
2019-03-27T22:35:21.275Z,32.75
2019-03-27T22:37:49.768Z,34.15
2019-03-27T22:40:18.256Z,30.30
2019-03-27T22:42:46.801Z,29.80
2019-03-27T22:45:15.293Z,32.63
2019-03-27T22:47:43.752Z,27.90
2019-03-27T22:50:12.267Z,28.83
2019-03-27T22:52:40.760Z,28.12
2019-03-27T22:55:09.384Z,28.77
2019-03-27T22:57:37.978Z,38.23
2019-03-27T23:00:10.941Z,34.38
2019-03-27T23:02:39.592Z,31.07
2019-03-27T23:05:08.103Z,35.20
2019-03-27T23:07:36.605Z,33.73
2019-03-27T23:10:05.915Z,32.20
2019-03-27T23:12:34.413Z,29.40
2019-03-27T23:15:03.037Z,33.50
2019-03-27T23:17:31.551Z,32.05
2019-03-27T23:20:00.011Z,34.73
2019-03-27T23:22:28.501Z,34.65
2019-03-27T23:24:56.959Z,35.98
2019-03-27T23:27:25.441Z,31.15
2019-03-27T23:29:53.930Z,42.03
2019-03-27T23:32:22.496Z,26.90
2019-03-27T23:34:50.998Z,29.52
2019-03-27T23:37:19.521Z,34.05
2019-03-27T23:39:48.095Z,26.50
2019-03-27T23:42:16.641Z,24.18
2019-03-27T23:44:45.165Z,30.32
2019-03-27T23:47:13.610Z,25.60
2019-03-27T23:49:42.067Z,23.22
2019-03-27T23:52:10.534Z,29.30
2019-03-27T23:54:39.024Z,32.58
2019-03-27T23:57:07.539Z,26.33
2019-03-27T23:59:35.987Z,30.82
